sensor_id;sensor_type;location;lat;lon;timestamp;P1;durP1;ratioP1;P2;durP2;ratioP2
66585;SDS011;53444;45.822;16.092;2023-07-31T00:00:10;1.58;;;0.82;;
66585;SDS011;53444;45.822;16.092;2023-07-31T00:02:37;1.20;;;0.77;;
66585;SDS011;53444;45.822;16.092;2023-07-31T00:05:04;1.35;;;0.70;;
66585;SDS011;53444;45.822;16.092;2023-07-31T00:07:32;1.48;;;0.80;;
66585;SDS011;53444;45.822;16.092;2023-07-31T00:09:58;1.30;;;0.60;;
66585;SDS011;53444;45.822;16.092;2023-07-31T00:12:26;3.03;;;0.60;;
66585;SDS011;53444;45.822;16.092;2023-07-31T00:14:53;2.10;;;0.73;;
66585;SDS011;53444;45.822;16.092;2023-07-31T00:17:20;1.75;;;0.93;;
66585;SDS011;53444;45.822;16.092;2023-07-31T00:19:46;1.90;;;1.10;;
66585;SDS011;53444;45.822;16.092;2023-07-31T00:22:15;1.90;;;0.93;;
66585;SDS011;53444;45.822;16.092;2023-07-31T00:24:42;1.00;;;0.70;;
66585;SDS011;53444;45.822;16.092;2023-07-31T00:27:09;1.00;;;0.60;;
66585;SDS011;53444;45.822;16.092;2023-07-31T00:29:37;1.65;;;0.90;;
66585;SDS011;53444;45.822;16.092;2023-07-31T00:32:04;2.95;;;1.00;;
66585;SDS011;53444;45.822;16.092;2023-07-31T00:34:31;1.23;;;0.75;;
66585;SDS011;53444;45.822;16.092;2023-07-31T00:36:58;3.22;;;0.75;;
66585;SDS011;53444;45.822;16.092;2023-07-31T00:39:24;1.13;;;0.73;;
66585;SDS011;53444;45.822;16.092;2023-07-31T00:41:51;3.08;;;0.75;;
66585;SDS011;53444;45.822;16.092;2023-07-31T00:44:18;1.88;;;0.90;;
66585;SDS011;53444;45.822;16.092;2023-07-31T00:46:46;2.35;;;0.60;;
66585;SDS011;53444;45.822;16.092;2023-07-31T00:49:12;2.10;;;0.93;;
66585;SDS011;53444;45.822;16.092;2023-07-31T00:51:39;1.93;;;0.70;;
66585;SDS011;53444;45.822;16.092;2023-07-31T00:54:06;1.63;;;0.90;;
66585;SDS011;53444;45.822;16.092;2023-07-31T00:56:33;1.58;;;0.80;;
66585;SDS011;53444;45.822;16.092;2023-07-31T00:58:59;2.22;;;0.90;;
66585;SDS011;53444;45.822;16.092;2023-07-31T01:01:26;1.25;;;0.75;;
66585;SDS011;53444;45.822;16.092;2023-07-31T01:03:55;2.13;;;0.70;;
66585;SDS011;53444;45.822;16.092;2023-07-31T01:06:23;1.30;;;0.70;;
66585;SDS011;53444;45.822;16.092;2023-07-31T01:08:58;1.52;;;0.60;;
66585;SDS011;53444;45.822;16.092;2023-07-31T01:11:30;2.63;;;0.77;;
66585;SDS011;53444;45.822;16.092;2023-07-31T01:13:59;1.75;;;0.80;;
66585;SDS011;53444;45.822;16.092;2023-07-31T01:16:26;1.47;;;1.00;;
66585;SDS011;53444;45.822;16.092;2023-07-31T01:18:53;2.78;;;0.73;;
66585;SDS011;53444;45.822;16.092;2023-07-31T01:21:30;1.30;;;0.88;;
66585;SDS011;53444;45.822;16.092;2023-07-31T01:24:20;1.45;;;0.90;;
66585;SDS011;53444;45.822;16.092;2023-07-31T01:26:52;6.20;;;1.10;;
66585;SDS011;53444;45.822;16.092;2023-07-31T01:29:24;1.70;;;0.93;;
66585;SDS011;53444;45.822;16.092;2023-07-31T01:31:59;3.10;;;0.90;;
66585;SDS011;53444;45.822;16.092;2023-07-31T01:34:28;3.80;;;0.80;;
66585;SDS011;53444;45.822;16.092;2023-07-31T01:36:56;1.85;;;0.90;;
66585;SDS011;53444;45.822;16.092;2023-07-31T01:39:23;2.10;;;0.90;;
66585;SDS011;53444;45.822;16.092;2023-07-31T01:41:51;2.23;;;0.80;;
66585;SDS011;53444;45.822;16.092;2023-07-31T01:44:18;3.75;;;0.98;;
66585;SDS011;53444;45.822;16.092;2023-07-31T01:46:44;2.25;;;0.80;;
66585;SDS011;53444;45.822;16.092;2023-07-31T01:49:11;1.50;;;1.00;;
66585;SDS011;53444;45.822;16.092;2023-07-31T01:51:38;2.35;;;0.98;;
66585;SDS011;53444;45.822;16.092;2023-07-31T01:54:04;1.47;;;1.00;;
66585;SDS011;53444;45.822;16.092;2023-07-31T01:56:31;3.00;;;0.95;;
66585;SDS011;53444;45.822;16.092;2023-07-31T01:58:59;2.22;;;0.88;;
66585;SDS011;53444;45.822;16.092;2023-07-31T02:01:25;2.47;;;0.80;;
66585;SDS011;53444;45.822;16.092;2023-07-31T02:03:52;1.20;;;0.80;;
66585;SDS011;53444;45.822;16.092;2023-07-31T02:06:19;1.70;;;0.80;;
66585;SDS011;53444;45.822;16.092;2023-07-31T02:08:45;2.55;;;0.88;;
66585;SDS011;53444;45.822;16.092;2023-07-31T02:11:12;2.53;;;1.00;;
66585;SDS011;53444;45.822;16.092;2023-07-31T02:13:39;2.05;;;0.90;;
66585;SDS011;53444;45.822;16.092;2023-07-31T02:16:07;1.63;;;0.95;;
66585;SDS011;53444;45.822;16.092;2023-07-31T02:18:34;3.17;;;0.83;;
66585;SDS011;53444;45.822;16.092;2023-07-31T02:21:00;4.72;;;0.90;;
66585;SDS011;53444;45.822;16.092;2023-07-31T02:23:27;2.78;;;0.90;;
66585;SDS011;53444;45.822;16.092;2023-07-31T02:25:54;1.85;;;1.10;;
66585;SDS011;53444;45.822;16.092;2023-07-31T02:28:20;3.25;;;1.10;;
66585;SDS011;53444;45.822;16.092;2023-07-31T02:30:47;5.17;;;0.97;;
66585;SDS011;53444;45.822;16.092;2023-07-31T02:33:17;1.20;;;0.82;;
66585;SDS011;53444;45.822;16.092;2023-07-31T02:35:44;2.60;;;1.02;;
66585;SDS011;53444;45.822;16.092;2023-07-31T02:38:10;1.95;;;0.98;;
66585;SDS011;53444;45.822;16.092;2023-07-31T02:40:37;1.13;;;0.73;;
66585;SDS011;53444;45.822;16.092;2023-07-31T02:43:05;2.80;;;0.90;;
66585;SDS011;53444;45.822;16.092;2023-07-31T02:45:31;2.03;;;1.10;;
66585;SDS011;53444;45.822;16.092;2023-07-31T02:47:58;1.90;;;1.17;;
66585;SDS011;53444;45.822;16.092;2023-07-31T02:50:26;2.70;;;1.40;;
66585;SDS011;53444;45.822;16.092;2023-07-31T02:52:53;4.20;;;1.30;;
66585;SDS011;53444;45.822;16.092;2023-07-31T02:55:23;2.10;;;0.80;;
66585;SDS011;53444;45.822;16.092;2023-07-31T02:57:49;2.85;;;1.30;;
66585;SDS011;53444;45.822;16.092;2023-07-31T03:02:55;3.80;;;1.40;;
66585;SDS011;53444;45.822;16.092;2023-07-31T03:05:21;1.58;;;1.13;;
66585;SDS011;53444;45.822;16.092;2023-07-31T03:07:50;2.23;;;1.20;;
66585;SDS011;53444;45.822;16.092;2023-07-31T03:10:16;3.55;;;1.30;;
66585;SDS011;53444;45.822;16.092;2023-07-31T03:12:46;2.65;;;1.30;;
66585;SDS011;53444;45.822;16.092;2023-07-31T03:15:13;2.55;;;1.30;;
66585;SDS011;53444;45.822;16.092;2023-07-31T03:17:40;2.20;;;1.27;;
66585;SDS011;53444;45.822;16.092;2023-07-31T03:20:07;2.13;;;1.30;;
66585;SDS011;53444;45.822;16.092;2023-07-31T03:22:34;4.53;;;1.40;;
66585;SDS011;53444;45.822;16.092;2023-07-31T03:25:02;1.63;;;1.02;;
66585;SDS011;53444;45.822;16.092;2023-07-31T03:27:29;2.55;;;1.83;;
66585;SDS011;53444;45.822;16.092;2023-07-31T03:29:56;2.35;;;1.00;;
66585;SDS011;53444;45.822;16.092;2023-07-31T03:32:24;1.93;;;1.20;;
66585;SDS011;53444;45.822;16.092;2023-07-31T03:34:50;2.20;;;1.17;;
66585;SDS011;53444;45.822;16.092;2023-07-31T03:37:17;2.53;;;1.10;;
66585;SDS011;53444;45.822;16.092;2023-07-31T03:39:43;1.92;;;1.05;;
66585;SDS011;53444;45.822;16.092;2023-07-31T03:42:11;1.90;;;1.17;;
66585;SDS011;53444;45.822;16.092;2023-07-31T03:44:38;5.13;;;1.40;;
66585;SDS011;53444;45.822;16.092;2023-07-31T03:47:05;3.25;;;1.50;;
66585;SDS011;53444;45.822;16.092;2023-07-31T03:49:32;2.20;;;1.23;;
66585;SDS011;53444;45.822;16.092;2023-07-31T03:51:58;2.40;;;1.40;;
66585;SDS011;53444;45.822;16.092;2023-07-31T03:54:25;5.35;;;1.10;;
66585;SDS011;53444;45.822;16.092;2023-07-31T03:56:52;1.77;;;1.20;;
66585;SDS011;53444;45.822;16.092;2023-07-31T03:59:20;3.65;;;1.15;;
66585;SDS011;53444;45.822;16.092;2023-07-31T04:01:46;4.30;;;1.45;;
66585;SDS011;53444;45.822;16.092;2023-07-31T04:04:13;5.90;;;1.20;;
66585;SDS011;53444;45.822;16.092;2023-07-31T04:06:39;3.05;;;1.35;;
66585;SDS011;53444;45.822;16.092;2023-07-31T04:09:06;6.77;;;1.30;;
66585;SDS011;53444;45.822;16.092;2023-07-31T04:11:33;3.17;;;1.55;;
66585;SDS011;53444;45.822;16.092;2023-07-31T04:13:59;1.88;;;1.30;;
66585;SDS011;53444;45.822;16.092;2023-07-31T04:16:27;3.38;;;1.58;;
66585;SDS011;53444;45.822;16.092;2023-07-31T04:18:54;3.95;;;1.33;;
66585;SDS011;53444;45.822;16.092;2023-07-31T04:21:20;3.00;;;1.20;;
66585;SDS011;53444;45.822;16.092;2023-07-31T04:23:47;4.43;;;1.60;;
66585;SDS011;53444;45.822;16.092;2023-07-31T04:26:13;2.72;;;1.70;;
66585;SDS011;53444;45.822;16.092;2023-07-31T04:28:40;2.50;;;1.60;;
66585;SDS011;53444;45.822;16.092;2023-07-31T04:31:06;2.60;;;1.40;;
66585;SDS011;53444;45.822;16.092;2023-07-31T04:33:35;3.37;;;1.50;;
66585;SDS011;53444;45.822;16.092;2023-07-31T04:36:01;2.38;;;1.10;;
66585;SDS011;53444;45.822;16.092;2023-07-31T04:38:28;4.50;;;1.45;;
66585;SDS011;53444;45.822;16.092;2023-07-31T04:40:55;2.75;;;1.25;;
66585;SDS011;53444;45.822;16.092;2023-07-31T04:43:21;3.10;;;1.70;;
66585;SDS011;53444;45.822;16.092;2023-07-31T04:45:48;3.57;;;1.30;;
66585;SDS011;53444;45.822;16.092;2023-07-31T04:48:15;1.75;;;1.38;;
66585;SDS011;53444;45.822;16.092;2023-07-31T04:50:43;5.32;;;1.63;;
66585;SDS011;53444;45.822;16.092;2023-07-31T04:53:10;2.90;;;1.00;;
66585;SDS011;53444;45.822;16.092;2023-07-31T04:55:36;1.88;;;1.35;;
66585;SDS011;53444;45.822;16.092;2023-07-31T04:58:03;3.33;;;1.23;;
66585;SDS011;53444;45.822;16.092;2023-07-31T05:00:30;4.93;;;1.30;;
66585;SDS011;53444;45.822;16.092;2023-07-31T05:02:56;2.30;;;1.20;;
66585;SDS011;53444;45.822;16.092;2023-07-31T05:05:23;1.98;;;1.20;;
66585;SDS011;53444;45.822;16.092;2023-07-31T05:07:51;2.83;;;1.27;;
66585;SDS011;53444;45.822;16.092;2023-07-31T05:10:17;1.83;;;1.20;;
66585;SDS011;53444;45.822;16.092;2023-07-31T05:12:44;2.10;;;1.20;;
66585;SDS011;53444;45.822;16.092;2023-07-31T05:15:11;4.20;;;1.27;;
66585;SDS011;53444;45.822;16.092;2023-07-31T05:17:37;3.20;;;1.42;;
66585;SDS011;53444;45.822;16.092;2023-07-31T05:20:04;1.95;;;1.10;;
66585;SDS011;53444;45.822;16.092;2023-07-31T05:22:32;2.97;;;1.50;;
66585;SDS011;53444;45.822;16.092;2023-07-31T05:25:00;2.30;;;1.40;;
66585;SDS011;53444;45.822;16.092;2023-07-31T05:27:27;2.90;;;1.30;;
66585;SDS011;53444;45.822;16.092;2023-07-31T05:29:53;1.50;;;1.13;;
66585;SDS011;53444;45.822;16.092;2023-07-31T05:32:20;1.90;;;1.20;;
66585;SDS011;53444;45.822;16.092;2023-07-31T05:34:47;2.83;;;1.13;;
66585;SDS011;53444;45.822;16.092;2023-07-31T05:37:13;1.55;;;1.10;;
66585;SDS011;53444;45.822;16.092;2023-07-31T05:39:40;4.20;;;1.35;;
66585;SDS011;53444;45.822;16.092;2023-07-31T05:42:08;3.65;;;1.10;;
66585;SDS011;53444;45.822;16.092;2023-07-31T05:44:35;1.80;;;1.23;;
66585;SDS011;53444;45.822;16.092;2023-07-31T05:47:01;2.43;;;1.13;;
66585;SDS011;53444;45.822;16.092;2023-07-31T05:49:28;4.22;;;1.45;;
66585;SDS011;53444;45.822;16.092;2023-07-31T05:51:55;2.05;;;1.23;;
66585;SDS011;53444;45.822;16.092;2023-07-31T05:54:21;3.25;;;1.17;;
66585;SDS011;53444;45.822;16.092;2023-07-31T05:56:48;3.03;;;1.30;;
66585;SDS011;53444;45.822;16.092;2023-07-31T05:59:18;2.70;;;1.50;;
66585;SDS011;53444;45.822;16.092;2023-07-31T06:01:44;2.70;;;1.15;;
66585;SDS011;53444;45.822;16.092;2023-07-31T06:04:11;6.65;;;1.52;;
66585;SDS011;53444;45.822;16.092;2023-07-31T06:06:38;2.67;;;1.27;;
66585;SDS011;53444;45.822;16.092;2023-07-31T06:09:05;2.75;;;1.40;;
66585;SDS011;53444;45.822;16.092;2023-07-31T06:11:32;2.17;;;1.40;;
66585;SDS011;53444;45.822;16.092;2023-07-31T06:13:59;2.25;;;1.23;;
66585;SDS011;53444;45.822;16.092;2023-07-31T06:16:27;3.83;;;1.58;;
66585;SDS011;53444;45.822;16.092;2023-07-31T06:18:54;3.97;;;1.45;;
66585;SDS011;53444;45.822;16.092;2023-07-31T06:21:20;2.60;;;1.35;;
66585;SDS011;53444;45.822;16.092;2023-07-31T06:23:47;1.80;;;1.20;;
66585;SDS011;53444;45.822;16.092;2023-07-31T06:26:13;2.40;;;1.40;;
66585;SDS011;53444;45.822;16.092;2023-07-31T06:28:41;3.88;;;1.70;;
66585;SDS011;53444;45.822;16.092;2023-07-31T06:31:08;2.40;;;1.30;;
66585;SDS011;53444;45.822;16.092;2023-07-31T06:33:36;1.85;;;1.35;;
66585;SDS011;53444;45.822;16.092;2023-07-31T06:36:02;2.13;;;1.40;;
66585;SDS011;53444;45.822;16.092;2023-07-31T06:38:29;1.60;;;1.40;;
66585;SDS011;53444;45.822;16.092;2023-07-31T06:40:55;2.47;;;1.55;;
66585;SDS011;53444;45.822;16.092;2023-07-31T06:43:22;2.38;;;1.35;;
66585;SDS011;53444;45.822;16.092;2023-07-31T06:45:49;1.92;;;1.40;;
66585;SDS011;53444;45.822;16.092;2023-07-31T06:48:16;2.97;;;1.30;;
66585;SDS011;53444;45.822;16.092;2023-07-31T06:50:44;2.45;;;1.50;;
66585;SDS011;53444;45.822;16.092;2023-07-31T06:53:11;3.15;;;1.50;;
66585;SDS011;53444;45.822;16.092;2023-07-31T06:55:37;2.30;;;1.50;;
66585;SDS011;53444;45.822;16.092;2023-07-31T06:58:04;1.83;;;1.50;;
66585;SDS011;53444;45.822;16.092;2023-07-31T07:00:30;2.70;;;1.23;;
66585;SDS011;53444;45.822;16.092;2023-07-31T07:02:57;3.83;;;1.20;;
66585;SDS011;53444;45.822;16.092;2023-07-31T07:05:24;1.77;;;1.50;;
66585;SDS011;53444;45.822;16.092;2023-07-31T07:07:52;2.90;;;1.33;;
66585;SDS011;53444;45.822;16.092;2023-07-31T07:10:19;2.92;;;1.45;;
66585;SDS011;53444;45.822;16.092;2023-07-31T07:12:45;2.60;;;1.30;;
66585;SDS011;53444;45.822;16.092;2023-07-31T07:15:12;2.55;;;1.58;;
66585;SDS011;53444;45.822;16.092;2023-07-31T07:17:39;3.15;;;1.65;;
66585;SDS011;53444;45.822;16.092;2023-07-31T07:20:06;1.95;;;1.40;;
66585;SDS011;53444;45.822;16.092;2023-07-31T07:22:33;2.95;;;1.50;;
66585;SDS011;53444;45.822;16.092;2023-07-31T07:25:02;2.73;;;1.40;;
66585;SDS011;53444;45.822;16.092;2023-07-31T07:27:29;2.83;;;1.48;;
66585;SDS011;53444;45.822;16.092;2023-07-31T07:29:55;1.85;;;1.30;;
66585;SDS011;53444;45.822;16.092;2023-07-31T07:32:22;2.88;;;1.15;;
66585;SDS011;53444;45.822;16.092;2023-07-31T07:34:48;2.08;;;1.40;;
66585;SDS011;53444;45.822;16.092;2023-07-31T07:37:15;1.97;;;1.33;;
66585;SDS011;53444;45.822;16.092;2023-07-31T07:39:42;1.85;;;1.30;;
66585;SDS011;53444;45.822;16.092;2023-07-31T07:42:10;1.52;;;1.10;;
66585;SDS011;53444;45.822;16.092;2023-07-31T07:44:37;4.22;;;1.30;;
66585;SDS011;53444;45.822;16.092;2023-07-31T07:47:03;1.80;;;1.33;;
66585;SDS011;53444;45.822;16.092;2023-07-31T07:49:31;2.17;;;1.50;;
66585;SDS011;53444;45.822;16.092;2023-07-31T07:51:57;1.88;;;1.10;;
66585;SDS011;53444;45.822;16.092;2023-07-31T07:54:24;2.63;;;1.20;;
66585;SDS011;53444;45.822;16.092;2023-07-31T07:56:50;1.80;;;1.40;;
66585;SDS011;53444;45.822;16.092;2023-07-31T07:59:19;2.05;;;1.30;;
66585;SDS011;53444;45.822;16.092;2023-07-31T08:01:45;1.90;;;1.30;;
66585;SDS011;53444;45.822;16.092;2023-07-31T08:04:12;4.80;;;1.65;;
66585;SDS011;53444;45.822;16.092;2023-07-31T08:06:38;1.83;;;1.40;;
66585;SDS011;53444;45.822;16.092;2023-07-31T08:09:05;2.90;;;1.40;;
66585;SDS011;53444;45.822;16.092;2023-07-31T08:11:33;1.90;;;1.48;;
66585;SDS011;53444;45.822;16.092;2023-07-31T08:14:00;1.90;;;1.30;;
66585;SDS011;53444;45.822;16.092;2023-07-31T08:16:28;2.38;;;1.30;;
66585;SDS011;53444;45.822;16.092;2023-07-31T08:18:55;3.92;;;1.95;;
66585;SDS011;53444;45.822;16.092;2023-07-31T08:21:21;2.10;;;1.80;;
66585;SDS011;53444;45.822;16.092;2023-07-31T08:23:48;2.42;;;1.63;;
66585;SDS011;53444;45.822;16.092;2023-07-31T08:26:15;2.53;;;1.77;;
66585;SDS011;53444;45.822;16.092;2023-07-31T08:28:42;2.13;;;1.60;;
66585;SDS011;53444;45.822;16.092;2023-07-31T08:31:09;3.08;;;1.83;;
66585;SDS011;53444;45.822;16.092;2023-07-31T08:33:37;3.22;;;1.98;;
66585;SDS011;53444;45.822;16.092;2023-07-31T08:36:03;2.40;;;1.70;;
66585;SDS011;53444;45.822;16.092;2023-07-31T08:38:30;3.93;;;1.60;;
66585;SDS011;53444;45.822;16.092;2023-07-31T08:40:57;2.83;;;2.15;;
66585;SDS011;53444;45.822;16.092;2023-07-31T08:43:24;2.70;;;1.50;;
66585;SDS011;53444;45.822;16.092;2023-07-31T08:45:52;2.78;;;1.80;;
66585;SDS011;53444;45.822;16.092;2023-07-31T08:48:20;3.70;;;1.50;;
66585;SDS011;53444;45.822;16.092;2023-07-31T08:50:50;2.37;;;2.07;;
66585;SDS011;53444;45.822;16.092;2023-07-31T08:53:17;4.22;;;1.80;;
66585;SDS011;53444;45.822;16.092;2023-07-31T08:55:44;3.20;;;1.50;;
66585;SDS011;53444;45.822;16.092;2023-07-31T08:58:12;2.78;;;1.60;;
66585;SDS011;53444;45.822;16.092;2023-07-31T09:00:40;3.28;;;1.80;;
66585;SDS011;53444;45.822;16.092;2023-07-31T09:03:09;2.20;;;1.60;;
66585;SDS011;53444;45.822;16.092;2023-07-31T09:05:41;3.00;;;1.88;;
66585;SDS011;53444;45.822;16.092;2023-07-31T09:08:10;2.60;;;1.80;;
66585;SDS011;53444;45.822;16.092;2023-07-31T09:10:40;2.30;;;1.60;;
66585;SDS011;53444;45.822;16.092;2023-07-31T09:13:08;2.90;;;1.70;;
66585;SDS011;53444;45.822;16.092;2023-07-31T09:15:35;2.93;;;1.67;;
66585;SDS011;53444;45.822;16.092;2023-07-31T09:18:03;2.78;;;2.00;;
66585;SDS011;53444;45.822;16.092;2023-07-31T09:20:31;2.30;;;2.00;;
66585;SDS011;53444;45.822;16.092;2023-07-31T09:23:04;2.53;;;1.67;;
66585;SDS011;53444;45.822;16.092;2023-07-31T09:25:33;2.33;;;1.80;;
66585;SDS011;53444;45.822;16.092;2023-07-31T09:28:01;2.60;;;1.70;;
66585;SDS011;53444;45.822;16.092;2023-07-31T09:30:29;2.67;;;1.65;;
66585;SDS011;53444;45.822;16.092;2023-07-31T09:33:00;3.28;;;1.80;;
66585;SDS011;53444;45.822;16.092;2023-07-31T09:35:28;1.95;;;1.65;;
66585;SDS011;53444;45.822;16.092;2023-07-31T09:37:57;3.05;;;1.90;;
66585;SDS011;53444;45.822;16.092;2023-07-31T09:40:26;4.23;;;1.90;;
66585;SDS011;53444;45.822;16.092;2023-07-31T09:42:58;3.80;;;1.90;;
66585;SDS011;53444;45.822;16.092;2023-07-31T09:45:26;2.80;;;1.90;;
66585;SDS011;53444;45.822;16.092;2023-07-31T09:47:53;2.55;;;1.98;;
66585;SDS011;53444;45.822;16.092;2023-07-31T09:50:20;3.97;;;2.00;;
66585;SDS011;53444;45.822;16.092;2023-07-31T09:52:48;6.73;;;2.27;;
66585;SDS011;53444;45.822;16.092;2023-07-31T09:55:15;2.40;;;2.10;;
66585;SDS011;53444;45.822;16.092;2023-07-31T09:57:43;3.03;;;1.92;;
66585;SDS011;53444;45.822;16.092;2023-07-31T10:00:13;5.15;;;3.30;;
66585;SDS011;53444;45.822;16.092;2023-07-31T10:02:42;2.85;;;2.00;;
66585;SDS011;53444;45.822;16.092;2023-07-31T10:05:12;3.67;;;2.00;;
66585;SDS011;53444;45.822;16.092;2023-07-31T10:07:40;1.75;;;1.60;;
66585;SDS011;53444;45.822;16.092;2023-07-31T10:10:09;3.17;;;2.00;;
66585;SDS011;53444;45.822;16.092;2023-07-31T10:12:36;2.90;;;2.20;;
66585;SDS011;53444;45.822;16.092;2023-07-31T10:15:04;2.72;;;1.90;;
66585;SDS011;53444;45.822;16.092;2023-07-31T10:17:33;2.47;;;1.93;;
66585;SDS011;53444;45.822;16.092;2023-07-31T10:20:01;2.97;;;2.20;;
66585;SDS011;53444;45.822;16.092;2023-07-31T10:22:30;4.32;;;2.20;;
66585;SDS011;53444;45.822;16.092;2023-07-31T10:24:57;2.55;;;2.00;;
66585;SDS011;53444;45.822;16.092;2023-07-31T10:27:24;3.03;;;1.67;;
66585;SDS011;53444;45.822;16.092;2023-07-31T10:29:51;2.97;;;1.90;;
66585;SDS011;53444;45.822;16.092;2023-07-31T10:32:20;2.65;;;1.95;;
66585;SDS011;53444;45.822;16.092;2023-07-31T10:34:49;3.50;;;2.28;;
66585;SDS011;53444;45.822;16.092;2023-07-31T10:37:21;2.38;;;2.13;;
66585;SDS011;53444;45.822;16.092;2023-07-31T10:39:55;2.67;;;1.88;;
66585;SDS011;53444;45.822;16.092;2023-07-31T10:42:27;4.33;;;1.73;;
66585;SDS011;53444;45.822;16.092;2023-07-31T10:44:55;2.90;;;1.73;;
66585;SDS011;53444;45.822;16.092;2023-07-31T10:47:23;3.20;;;1.90;;
66585;SDS011;53444;45.822;16.092;2023-07-31T10:49:51;2.67;;;2.13;;
66585;SDS011;53444;45.822;16.092;2023-07-31T10:52:19;3.33;;;1.90;;
66585;SDS011;53444;45.822;16.092;2023-07-31T10:54:48;2.40;;;2.10;;
66585;SDS011;53444;45.822;16.092;2023-07-31T10:57:22;2.55;;;1.73;;
66585;SDS011;53444;45.822;16.092;2023-07-31T10:59:51;2.88;;;2.00;;
66585;SDS011;53444;45.822;16.092;2023-07-31T11:06:38;2.30;;;1.88;;
66585;SDS011;53444;45.822;16.092;2023-07-31T11:12:25;2.05;;;1.75;;
66585;SDS011;53444;45.822;16.092;2023-07-31T11:14:53;2.33;;;1.70;;
66585;SDS011;53444;45.822;16.092;2023-07-31T11:17:24;2.20;;;1.80;;
66585;SDS011;53444;45.822;16.092;2023-07-31T11:19:51;2.10;;;1.90;;
66585;SDS011;53444;45.822;16.092;2023-07-31T11:22:19;2.17;;;1.90;;
66585;SDS011;53444;45.822;16.092;2023-07-31T11:24:46;3.38;;;1.95;;
66585;SDS011;53444;45.822;16.092;2023-07-31T11:27:13;1.92;;;1.63;;
66585;SDS011;53444;45.822;16.092;2023-07-31T11:29:40;4.32;;;1.80;;
66585;SDS011;53444;45.822;16.092;2023-07-31T11:32:15;2.13;;;1.92;;
66585;SDS011;53444;45.822;16.092;2023-07-31T11:34:50;2.63;;;1.70;;
66585;SDS011;53444;45.822;16.092;2023-07-31T11:37:19;2.33;;;1.88;;
66585;SDS011;53444;45.822;16.092;2023-07-31T11:39:57;3.05;;;1.75;;
66585;SDS011;53444;45.822;16.092;2023-07-31T11:42:25;3.03;;;1.73;;
66585;SDS011;53444;45.822;16.092;2023-07-31T11:44:51;4.28;;;2.08;;
66585;SDS011;53444;45.822;16.092;2023-07-31T11:47:18;3.90;;;2.03;;
66585;SDS011;53444;45.822;16.092;2023-07-31T11:49:45;2.47;;;1.70;;
66585;SDS011;53444;45.822;16.092;2023-07-31T11:52:12;2.30;;;1.98;;
66585;SDS011;53444;45.822;16.092;2023-07-31T11:54:41;2.80;;;1.75;;
66585;SDS011;53444;45.822;16.092;2023-07-31T11:57:07;2.28;;;2.05;;
66585;SDS011;53444;45.822;16.092;2023-07-31T11:59:34;2.30;;;1.80;;
66585;SDS011;53444;45.822;16.092;2023-07-31T12:02:01;2.22;;;1.98;;
66585;SDS011;53444;45.822;16.092;2023-07-31T12:04:28;2.85;;;1.88;;
66585;SDS011;53444;45.822;16.092;2023-07-31T12:06:55;4.90;;;2.10;;
66585;SDS011;53444;45.822;16.092;2023-07-31T12:09:22;3.42;;;1.92;;
66585;SDS011;53444;45.822;16.092;2023-07-31T12:11:50;3.00;;;1.80;;
66585;SDS011;53444;45.822;16.092;2023-07-31T12:14:20;2.50;;;1.80;;
66585;SDS011;53444;45.822;16.092;2023-07-31T12:16:48;3.55;;;1.85;;
66585;SDS011;53444;45.822;16.092;2023-07-31T12:19:20;3.17;;;1.70;;
66585;SDS011;53444;45.822;16.092;2023-07-31T12:21:47;2.10;;;1.70;;
66585;SDS011;53444;45.822;16.092;2023-07-31T12:24:14;2.80;;;2.17;;
66585;SDS011;53444;45.822;16.092;2023-07-31T12:26:42;3.53;;;2.10;;
66585;SDS011;53444;45.822;16.092;2023-07-31T12:29:14;3.00;;;2.00;;
66585;SDS011;53444;45.822;16.092;2023-07-31T12:31:41;3.17;;;2.00;;
66585;SDS011;53444;45.822;16.092;2023-07-31T12:34:14;2.80;;;2.20;;
66585;SDS011;53444;45.822;16.092;2023-07-31T12:36:42;2.33;;;1.70;;
66585;SDS011;53444;45.822;16.092;2023-07-31T12:39:08;3.28;;;2.13;;
66585;SDS011;53444;45.822;16.092;2023-07-31T12:41:35;3.00;;;2.15;;
66585;SDS011;53444;45.822;16.092;2023-07-31T12:44:02;1.98;;;1.77;;
66585;SDS011;53444;45.822;16.092;2023-07-31T12:46:30;3.38;;;1.92;;
66585;SDS011;53444;45.822;16.092;2023-07-31T12:48:57;4.17;;;2.00;;
66585;SDS011;53444;45.822;16.092;2023-07-31T12:51:23;2.30;;;1.70;;
66585;SDS011;53444;45.822;16.092;2023-07-31T12:53:50;2.40;;;2.00;;
66585;SDS011;53444;45.822;16.092;2023-07-31T12:56:17;2.67;;;2.03;;
66585;SDS011;53444;45.822;16.092;2023-07-31T12:58:43;2.40;;;1.88;;
66585;SDS011;53444;45.822;16.092;2023-07-31T13:01:10;2.37;;;1.53;;
66585;SDS011;53444;45.822;16.092;2023-07-31T13:03:38;2.15;;;1.70;;
66585;SDS011;53444;45.822;16.092;2023-07-31T13:06:04;2.38;;;1.90;;
66585;SDS011;53444;45.822;16.092;2023-07-31T13:08:31;2.60;;;2.00;;
66585;SDS011;53444;45.822;16.092;2023-07-31T13:10:58;2.63;;;1.70;;
66585;SDS011;53444;45.822;16.092;2023-07-31T13:13:24;2.67;;;1.83;;
66585;SDS011;53444;45.822;16.092;2023-07-31T13:15:51;2.40;;;1.55;;
66585;SDS011;53444;45.822;16.092;2023-07-31T13:18:18;2.40;;;1.70;;
66585;SDS011;53444;45.822;16.092;2023-07-31T13:20:46;3.08;;;1.75;;
66585;SDS011;53444;45.822;16.092;2023-07-31T13:23:12;2.58;;;1.90;;
66585;SDS011;53444;45.822;16.092;2023-07-31T13:25:39;2.33;;;2.00;;
66585;SDS011;53444;45.822;16.092;2023-07-31T13:28:06;2.13;;;1.70;;
66585;SDS011;53444;45.822;16.092;2023-07-31T13:30:32;3.35;;;1.85;;
66585;SDS011;53444;45.822;16.092;2023-07-31T13:32:59;2.22;;;1.60;;
66585;SDS011;53444;45.822;16.092;2023-07-31T13:35:28;2.42;;;1.75;;
66585;SDS011;53444;45.822;16.092;2023-07-31T13:37:57;2.87;;;1.50;;
66585;SDS011;53444;45.822;16.092;2023-07-31T13:40:24;2.00;;;1.73;;
66585;SDS011;53444;45.822;16.092;2023-07-31T13:42:51;2.50;;;2.10;;
66585;SDS011;53444;45.822;16.092;2023-07-31T13:45:19;2.10;;;1.90;;
66585;SDS011;53444;45.822;16.092;2023-07-31T13:47:45;2.30;;;1.65;;
66585;SDS011;53444;45.822;16.092;2023-07-31T13:50:12;2.03;;;1.80;;
66585;SDS011;53444;45.822;16.092;2023-07-31T13:52:39;2.20;;;1.80;;
66585;SDS011;53444;45.822;16.092;2023-07-31T13:55:07;2.80;;;1.80;;
66585;SDS011;53444;45.822;16.092;2023-07-31T13:57:34;1.90;;;1.70;;
66585;SDS011;53444;45.822;16.092;2023-07-31T14:00:01;2.40;;;1.80;;
66585;SDS011;53444;45.822;16.092;2023-07-31T14:02:27;2.43;;;2.03;;
66585;SDS011;53444;45.822;16.092;2023-07-31T14:04:54;2.10;;;1.90;;
66585;SDS011;53444;45.822;16.092;2023-07-31T14:07:20;2.42;;;2.20;;
66585;SDS011;53444;45.822;16.092;2023-07-31T14:09:47;2.55;;;2.33;;
66585;SDS011;53444;45.822;16.092;2023-07-31T14:12:15;4.35;;;2.20;;
66585;SDS011;53444;45.822;16.092;2023-07-31T14:14:42;2.70;;;1.60;;
66585;SDS011;53444;45.822;16.092;2023-07-31T14:17:08;2.05;;;1.85;;
66585;SDS011;53444;45.822;16.092;2023-07-31T14:19:35;2.90;;;2.05;;
66585;SDS011;53444;45.822;16.092;2023-07-31T14:22:01;2.40;;;2.17;;
66585;SDS011;53444;45.822;16.092;2023-07-31T14:24:28;2.40;;;1.98;;
66585;SDS011;53444;45.822;16.092;2023-07-31T14:26:55;3.07;;;2.17;;
66585;SDS011;53444;45.822;16.092;2023-07-31T14:29:23;3.88;;;2.10;;
66585;SDS011;53444;45.822;16.092;2023-07-31T14:31:50;2.03;;;1.83;;
66585;SDS011;53444;45.822;16.092;2023-07-31T14:34:16;3.17;;;2.00;;
66585;SDS011;53444;45.822;16.092;2023-07-31T14:36:43;2.63;;;1.92;;
66585;SDS011;53444;45.822;16.092;2023-07-31T14:39:11;3.60;;;1.80;;
66585;SDS011;53444;45.822;16.092;2023-07-31T14:41:38;2.38;;;1.80;;
66585;SDS011;53444;45.822;16.092;2023-07-31T14:44:04;2.50;;;2.00;;